Time;durP1;ratioP1;P1;durP2;ratioP2;P2;SDS_P1;SDS_P2;PMS_P1;PMS_P2;Temp;Humidity;BMP_temperature;BMP_pressure;BME280_temperature;BME280_humidity;BME280_pressure;Samples;Min_cycle;Max_cycle;Signal;HPM_P1;HPM_P2
2022/09/04 00:00:32;;;;;;;15.63;9.05;;;17.80;99.90;;;;;;4953769;29;20047;-57
2022/09/04 00:03:00;;;;;;;12.93;9.43;;;17.80;99.90;;;;;;4953485;28;20039;-57
2022/09/04 00:05:27;;;;;;;14.85;9.68;;;17.80;99.90;;;;;;4955518;28;20050;-56
2022/09/04 00:07:53;;;;;;;15.88;10.10;;;17.80;99.90;;;;;;4952594;28;20059;-51
2022/09/04 00:10:20;;;;;;;15.13;9.63;;;17.80;99.90;;;;;;4955202;28;20046;-56
2022/09/04 00:12:47;;;;;;;15.77;10.02;;;17.80;99.90;;;;;;4953720;28;20098;-53
2022/09/04 00:15:14;;;;;;;13.82;10.35;;;17.80;99.90;;;;;;4944068;29;20411;-57
2022/09/04 00:17:40;;;;;;;14.70;9.63;;;17.70;99.90;;;;;;4955175;28;20046;-54
2022/09/04 00:20:07;;;;;;;13.60;9.23;;;17.70;99.90;;;;;;4949382;29;20113;-56
2022/09/04 00:22:34;;;;;;;14.48;9.50;;;17.70;99.90;;;;;;4955807;28;20430;-55
2022/09/04 00:25:01;;;;;;;13.65;9.13;;;17.70;99.90;;;;;;4957851;28;20399;-57
2022/09/04 00:27:28;;;;;;;14.85;9.02;;;17.60;99.90;;;;;;4958994;28;20074;-56
2022/09/04 00:29:58;;;;;;;13.77;9.40;;;17.60;99.90;;;;;;4958738;28;20047;-58
2022/09/04 00:32:25;;;;;;;13.57;9.73;;;17.60;99.90;;;;;;4957533;28;20047;-55
2022/09/04 00:34:51;;;;;;;15.30;9.75;;;17.60;99.90;;;;;;4957481;28;20042;-59
2022/09/04 00:37:20;;;;;;;15.13;9.30;;;17.60;99.90;;;;;;4955410;28;20039;-55
2022/09/04 00:39:46;;;;;;;11.57;8.90;;;17.60;99.90;;;;;;4956792;28;20045;-56
2022/09/04 00:42:13;;;;;;;11.32;9.10;;;17.60;99.90;;;;;;4956633;29;20042;-53
2022/09/04 00:44:40;;;;;;;12.63;9.40;;;17.60;99.90;;;;;;4958407;28;20167;-57
2022/09/04 00:47:07;;;;;;;13.07;9.35;;;17.50;99.90;;;;;;4957250;28;20087;-55
2022/09/04 00:49:35;;;;;;;14.23;10.13;;;17.50;99.90;;;;;;4957734;29;20102;-56
2022/09/04 00:52:02;;;;;;;14.25;10.27;;;17.50;99.90;;;;;;4957747;29;20047;-57
2022/09/04 00:54:28;;;;;;;14.95;10.23;;;17.50;99.90;;;;;;4957356;28;20059;-55
2022/09/04 00:56:55;;;;;;;10.15;8.55;;;17.40;99.90;;;;;;4958975;28;20055;-56
2022/09/04 00:59:22;;;;;;;13.10;9.57;;;17.40;99.90;;;;;;4958380;28;20054;-55
2022/09/04 01:01:54;;;;;;;15.30;9.63;;;17.40;99.90;;;;;;4958472;28;20043;-53
2022/09/04 01:04:21;;;;;;;12.93;8.98;;;17.40;99.90;;;;;;4958267;28;20050;-56
2022/09/04 01:06:48;;;;;;;14.38;9.80;;;17.40;99.90;;;;;;4958697;28;20039;-57
2022/09/04 01:09:15;;;;;;;16.42;10.23;;;17.40;99.90;;;;;;4958092;28;20502;-58
2022/09/04 01:11:42;;;;;;;11.70;9.90;;;17.40;99.90;;;;;;4956894;29;20408;-56
2022/09/04 01:14:09;;;;;;;10.93;9.70;;;17.30;99.90;;;;;;4956799;28;20047;-57
2022/09/04 01:16:36;;;;;;;18.55;11.35;;;17.30;99.90;;;;;;4956567;29;20054;-55
2022/09/04 01:19:03;;;;;;;14.35;10.90;;;17.30;99.90;;;;;;4957960;28;20130;-56
2022/09/04 01:21:30;;;;;;;14.45;11.60;;;17.40;99.90;;;;;;4957775;28;20043;-56
2022/09/04 01:23:56;;;;;;;15.98;11.45;;;17.30;99.90;;;;;;4955474;28;20047;-55
2022/09/04 01:26:23;;;;;;;17.73;12.60;;;17.30;99.90;;;;;;4956576;28;20142;-57
2022/09/04 01:28:50;;;;;;;18.52;13.38;;;17.30;99.90;;;;;;4958178;29;20411;-56
2022/09/04 01:31:17;;;;;;;17.52;12.98;;;17.30;99.90;;;;;;4958102;28;20099;-56
2022/09/04 01:33:45;;;;;;;16.38;13.60;;;17.30;99.90;;;;;;4957082;28;20046;-57
2022/09/04 01:36:11;;;;;;;15.60;13.85;;;17.30;99.90;;;;;;4956932;28;20039;-57
2022/09/04 01:38:38;;;;;;;18.10;14.55;;;17.20;99.90;;;;;;4957563;28;20102;-56
2022/09/04 01:41:06;;;;;;;19.67;14.90;;;17.30;99.90;;;;;;4957548;28;20474;-56
2022/09/04 01:43:33;;;;;;;17.25;14.52;;;17.20;99.90;;;;;;4957385;28;20050;-58
2022/09/04 01:46:00;;;;;;;17.92;14.70;;;17.20;99.90;;;;;;4957674;29;20390;-57
2022/09/04 01:48:27;;;;;;;19.65;14.77;;;17.20;99.90;;;;;;4955555;28;20118;-56
2022/09/04 01:50:53;;;;;;;17.48;15.52;;;17.20;99.90;;;;;;4956637;29;20470;-56
2022/09/04 01:53:20;;;;;;;17.98;16.05;;;17.20;99.90;;;;;;4956384;28;20470;-57
2022/09/04 01:55:47;;;;;;;18.58;15.30;;;17.20;99.90;;;;;;4956326;28;20056;-57
2022/09/04 01:58:14;;;;;;;18.95;16.25;;;17.20;99.90;;;;;;4957628;28;20487;-56
2022/09/04 02:00:40;;;;;;;17.55;15.70;;;17.20;99.90;;;;;;4956215;28;20098;-56
2022/09/04 02:03:07;;;;;;;19.35;15.90;;;17.10;99.90;;;;;;4957328;28;20510;-57
2022/09/04 02:05:34;;;;;;;22.10;16.88;;;17.10;99.90;;;;;;4957970;28;20055;-57
2022/09/04 02:08:01;;;;;;;19.30;15.98;;;17.10;99.90;;;;;;4956214;28;20036;-56
2022/09/04 02:10:28;;;;;;;20.65;17.25;;;17.10;99.90;;;;;;4955742;29;20050;-56
2022/09/04 02:12:56;;;;;;;19.85;17.08;;;17.10;99.90;;;;;;4956135;28;20047;-57
2022/09/04 02:15:25;;;;;;;19.77;17.00;;;17.10;99.90;;;;;;4956234;28;20110;-54
2022/09/04 02:17:53;;;;;;;22.42;17.75;;;17.10;99.90;;;;;;4955785;28;20041;-56
2022/09/04 02:20:20;;;;;;;22.10;18.25;;;17.00;99.90;;;;;;4957367;28;20067;-51
2022/09/04 02:22:47;;;;;;;21.92;18.52;;;17.00;99.90;;;;;;4956565;28;20047;-56
2022/09/04 02:25:14;;;;;;;23.02;20.30;;;17.00;99.90;;;;;;4957112;28;20043;-57
2022/09/04 02:27:40;;;;;;;27.00;21.73;;;17.00;99.90;;;;;;4955204;28;20047;-58
2022/09/04 02:30:09;;;;;;;23.95;21.33;;;17.00;99.90;;;;;;4956698;28;20046;-57
2022/09/04 02:32:36;;;;;;;25.63;20.67;;;17.00;99.90;;;;;;4957177;28;20114;-57
2022/09/04 02:35:03;;;;;;;23.52;21.02;;;17.00;99.90;;;;;;4946256;28;20053;-58
2022/09/04 02:37:30;;;;;;;25.70;22.75;;;17.00;99.90;;;;;;4937540;29;20047;-56
2022/09/04 02:39:59;;;;;;;25.00;22.35;;;17.00;99.90;;;;;;4938643;29;20380;-55
2022/09/04 02:42:26;;;;;;;26.38;23.65;;;17.00;99.90;;;;;;4956849;28;20050;-57
2022/09/04 02:44:53;;;;;;;26.58;23.52;;;17.00;99.90;;;;;;4956618;28;20058;-57
2022/09/04 02:47:20;;;;;;;27.17;24.50;;;17.00;99.90;;;;;;4955875;28;20427;-55
2022/09/04 02:49:47;;;;;;;27.40;24.45;;;17.00;99.90;;;;;;4956246;28;20043;-57
2022/09/04 02:52:14;;;;;;;28.40;24.85;;;17.00;99.90;;;;;;4955415;28;20039;-57
2022/09/04 02:54:40;;;;;;;29.15;25.80;;;17.00;99.90;;;;;;4954156;28;20055;-57
2022/09/04 02:57:08;;;;;;;32.30;25.80;;;17.00;99.90;;;;;;4956135;28;20091;-56
2022/09/04 02:59:34;;;;;;;32.53;25.35;;;17.00;99.90;;;;;;4954420;29;20106;-56
2022/09/04 03:02:01;;;;;;;30.60;25.48;;;17.00;99.90;;;;;;4955122;29;20039;-57
2022/09/04 03:04:30;;;;;;;28.83;25.73;;;17.00;99.90;;;;;;4956067;29;20035;-56
2022/09/04 03:06:56;;;;;;;30.02;26.45;;;17.00;99.90;;;;;;4956210;28;20074;-53
2022/09/04 03:09:23;;;;;;;29.67;26.40;;;17.00;99.90;;;;;;4956238;28;20039;-55
2022/09/04 03:11:50;;;;;;;30.35;27.25;;;16.90;99.90;;;;;;4941416;29;20379;-56
2022/09/04 03:14:17;;;;;;;30.58;27.38;;;16.90;99.90;;;;;;4941989;29;20102;-53
2022/09/04 03:16:43;;;;;;;31.20;27.92;;;16.90;99.90;;;;;;4955074;28;20062;-56
2022/09/04 03:19:10;;;;;;;34.10;28.55;;;16.90;99.90;;;;;;4955870;28;20047;-55
2022/09/04 03:21:41;;;;;;;32.15;28.73;;;16.80;99.90;;;;;;4955377;29;20470;-56
2022/09/04 03:24:08;;;;;;;34.00;28.67;;;16.90;99.90;;;;;;4955932;28;20486;-57
2022/09/04 03:26:35;;;;;;;33.63;28.70;;;16.90;99.90;;;;;;4954868;28;20090;-55
2022/09/04 03:29:02;;;;;;;35.42;28.90;;;16.90;99.90;;;;;;4954010;28;20058;-57
2022/09/04 03:31:29;;;;;;;34.42;29.08;;;16.90;99.90;;;;;;4954726;28;20483;-54
2022/09/04 03:33:55;;;;;;;31.58;28.13;;;16.80;99.90;;;;;;4954992;28;20047;-58
2022/09/04 03:36:22;;;;;;;32.65;28.48;;;16.80;99.90;;;;;;4953999;28;20090;-55
2022/09/04 03:38:49;;;;;;;33.45;30.05;;;16.90;99.90;;;;;;4955053;28;20039;-56
2022/09/04 03:41:16;;;;;;;32.05;28.75;;;16.90;99.90;;;;;;4955054;28;20066;-57
2022/09/04 03:43:43;;;;;;;32.28;28.92;;;16.80;99.90;;;;;;4953243;28;20378;-56
2022/09/04 03:46:10;;;;;;;34.00;30.42;;;16.90;99.90;;;;;;4954595;28;20062;-58
2022/09/04 03:48:37;;;;;;;33.15;28.83;;;16.80;99.90;;;;;;4954876;28;20090;-57
2022/09/04 03:51:04;;;;;;;33.45;30.02;;;16.80;99.90;;;;;;4954545;29;20040;-57
2022/09/04 03:53:30;;;;;;;32.17;28.90;;;16.90;99.90;;;;;;4954205;28;20098;-56
2022/09/04 03:55:57;;;;;;;33.22;29.15;;;16.90;99.90;;;;;;4953725;28;20055;-57
2022/09/04 03:58:24;;;;;;;32.92;29.42;;;16.90;99.90;;;;;;4954450;28;20102;-56
2022/09/04 04:00:55;;;;;;;35.25;29.40;;;16.90;99.90;;;;;;4953512;28;20054;-57
2022/09/04 04:03:23;;;;;;;32.85;29.23;;;16.90;99.90;;;;;;4954539;28;20039;-55
2022/09/04 04:05:51;;;;;;;33.10;28.67;;;17.00;99.90;;;;;;4955194;29;20039;-56
2022/09/04 04:08:18;;;;;;;35.30;29.20;;;17.00;99.90;;;;;;4955787;28;20055;-56
2022/09/04 04:10:45;;;;;;;32.63;28.65;;;17.00;99.90;;;;;;4955291;28;20050;-56
2022/09/04 04:13:12;;;;;;;33.08;29.58;;;17.10;99.90;;;;;;4944495;28;20044;-57
2022/09/04 04:15:38;;;;;;;32.65;28.15;;;17.10;99.90;;;;;;4945495;29;20099;-56
2022/09/04 04:18:05;;;;;;;33.13;26.52;;;17.20;99.90;;;;;;4947993;28;20043;-57
2022/09/04 04:20:33;;;;;;;28.63;25.50;;;17.20;99.90;;;;;;4954740;28;20050;-55
2022/09/04 04:23:00;;;;;;;29.63;26.42;;;17.30;99.90;;;;;;4953627;28;20067;-56
2022/09/04 04:25:26;;;;;;;30.20;25.25;;;17.30;99.90;;;;;;4952980;29;20043;-56
2022/09/04 04:27:53;;;;;;;28.40;25.02;;;17.40;99.90;;;;;;4954132;29;20139;-54
2022/09/04 04:30:21;;;;;;;28.45;25.25;;;17.40;99.90;;;;;;4953297;28;20489;-54
2022/09/04 04:32:47;;;;;;;27.75;24.70;;;17.40;99.90;;;;;;4954293;28;20077;-55
2022/09/04 04:35:14;;;;;;;27.70;23.40;;;17.50;99.90;;;;;;4953918;28;20043;-54
2022/09/04 04:37:42;;;;;;;25.98;23.30;;;17.50;99.90;;;;;;4954624;28;20058;-57
2022/09/04 04:40:09;;;;;;;28.13;25.10;;;17.50;99.90;;;;;;4955317;29;20360;-58
2022/09/04 04:42:36;;;;;;;25.63;22.83;;;17.50;99.90;;;;;;4954502;28;20375;-56
2022/09/04 04:47:48;;;;;;;27.33;23.05;;;17.50;99.90;;;;;;4953944;28;20529;-54
2022/09/04 04:50:14;;;;;;;27.50;24.60;;;17.50;99.90;;;;;;4954065;28;20371;-57
2022/09/04 04:52:49;;;;;;;25.83;22.65;;;17.40;99.90;;;;;;4952758;28;20138;-54
2022/09/04 04:55:15;;;;;;;26.25;22.50;;;17.50;99.90;;;;;;4952855;28;20083;-55
2022/09/04 04:57:43;;;;;;;27.35;23.77;;;17.50;99.90;;;;;;4954094;29;20110;-56
2022/09/04 05:00:11;;;;;;;30.88;22.83;;;17.40;99.90;;;;;;4954395;28;20091;-54
2022/09/04 05:02:37;;;;;;;27.15;22.65;;;17.40;99.90;;;;;;4951982;28;20039;-57
2022/09/04 05:05:04;;;;;;;24.92;21.92;;;17.40;99.90;;;;;;4953419;29;20043;-57
2022/09/04 05:07:34;;;;;;;27.50;23.33;;;17.50;99.90;;;;;;4953778;28;20042;-54
2022/09/04 05:10:04;;;;;;;25.42;22.27;;;17.50;99.90;;;;;;4956498;28;20526;-55
2022/09/04 05:12:31;;;;;;;28.70;22.50;;;17.50;99.90;;;;;;4957032;28;20043;-55
2022/09/04 05:14:58;;;;;;;25.88;21.50;;;17.50;99.90;;;;;;4957139;28;20099;-56
2022/09/04 05:17:24;;;;;;;26.88;20.73;;;17.40;99.90;;;;;;4957879;29;20054;-55
2022/09/04 05:19:51;;;;;;;22.52;19.83;;;17.40;99.90;;;;;;4956839;28;20043;-56
2022/09/04 05:22:18;;;;;;;22.25;19.73;;;17.40;99.90;;;;;;4957492;29;20039;-57
2022/09/04 05:24:45;;;;;;;22.38;20.08;;;17.50;99.90;;;;;;4957746;28;20046;-53
2022/09/04 05:27:13;;;;;;;23.65;19.23;;;17.50;99.90;;;;;;4946936;28;20099;-58
2022/09/04 05:29:40;;;;;;;21.08;18.83;;;17.40;99.90;;;;;;4941790;29;20502;-51
2022/09/04 05:32:07;;;;;;;21.00;18.48;;;17.40;99.90;;;;;;4956023;28;20047;-58
2022/09/04 05:34:34;;;;;;;21.83;18.45;;;17.40;99.90;;;;;;4956854;28;20043;-57
2022/09/04 05:37:01;;;;;;;22.33;19.60;;;17.40;99.90;;;;;;4955183;28;20043;-56
2022/09/04 05:39:29;;;;;;;20.42;18.25;;;17.40;99.90;;;;;;4956157;28;20051;-57
2022/09/04 05:41:56;;;;;;;20.05;18.00;;;17.40;99.90;;;;;;4956523;28;20533;-56
2022/09/04 05:44:23;;;;;;;21.05;18.25;;;17.40;99.90;;;;;;4954887;28;20051;-57
2022/09/04 05:46:49;;;;;;;21.67;18.10;;;17.40;99.90;;;;;;4956805;28;20047;-57
2022/09/04 05:49:17;;;;;;;20.77;17.38;;;17.40;99.90;;;;;;4956310;29;20114;-58
2022/09/04 05:51:44;;;;;;;24.05;19.15;;;17.40;99.90;;;;;;4956491;28;20463;-57
2022/09/04 05:54:11;;;;;;;22.85;19.83;;;17.50;99.90;;;;;;4957367;28;20082;-56
2022/09/04 05:56:38;;;;;;;20.15;17.83;;;17.40;99.90;;;;;;4955294;28;20063;-57
2022/09/04 05:59:05;;;;;;;26.02;16.90;;;17.40;99.90;;;;;;4957186;28;20608;-57
2022/09/04 06:01:32;;;;;;;20.23;16.65;;;17.40;99.90;;;;;;4954807;29;20047;-57
2022/09/04 06:03:58;;;;;;;17.90;15.90;;;17.40;99.90;;;;;;4954613;29;20094;-55
2022/09/04 06:06:25;;;;;;;19.38;15.60;;;17.50;99.90;;;;;;4956619;28;20043;-57
2022/09/04 06:08:52;;;;;;;21.05;15.65;;;17.50;99.90;;;;;;4956448;28;20435;-55
2022/09/04 06:11:19;;;;;;;21.45;16.65;;;17.50;99.90;;;;;;4955006;29;20505;-56
2022/09/04 06:13:45;;;;;;;20.90;15.65;;;17.50;99.90;;;;;;4955261;28;20094;-58
2022/09/04 06:16:12;;;;;;;19.02;15.35;;;17.60;99.90;;;;;;4955278;29;20137;-57
2022/09/04 06:18:39;;;;;;;21.13;15.05;;;17.60;99.90;;;;;;4955984;29;20118;-56
2022/09/04 06:21:06;;;;;;;18.50;13.60;;;17.60;99.90;;;;;;4955811;28;20090;-57
2022/09/04 06:23:32;;;;;;;15.52;13.57;;;17.70;99.90;;;;;;4955783;28;20039;-56
2022/09/04 06:25:59;;;;;;;20.27;12.82;;;17.70;99.90;;;;;;4956278;28;20487;-56
2022/09/04 06:28:26;;;;;;;14.82;11.60;;;17.80;99.90;;;;;;4956528;28;20443;-57
2022/09/04 06:30:53;;;;;;;17.42;12.27;;;17.80;99.90;;;;;;4956792;28;20098;-54
2022/09/04 06:33:19;;;;;;;20.23;10.63;;;17.80;99.90;;;;;;4956835;28;20098;-55
2022/09/04 06:35:46;;;;;;;13.55;9.73;;;17.90;99.90;;;;;;4954674;28;20051;-57
2022/09/04 06:38:13;;;;;;;14.32;9.40;;;17.90;99.90;;;;;;4953791;29;20099;-57
2022/09/04 06:40:40;;;;;;;15.02;8.13;;;18.00;99.90;;;;;;4957013;28;20051;-57
2022/09/04 06:43:07;;;;;;;15.70;8.35;;;18.00;99.90;;;;;;4953878;28;20036;-53
2022/09/04 06:45:34;;;;;;;12.20;7.80;;;18.10;99.90;;;;;;4955242;28;20047;-57
2022/09/04 06:48:01;;;;;;;14.70;7.10;;;18.10;99.90;;;;;;4954425;29;20130;-58
2022/09/04 06:50:28;;;;;;;11.43;7.00;;;18.20;99.90;;;;;;4971298;28;20371;-54
2022/09/04 06:52:55;;;;;;;10.48;6.10;;;18.30;99.90;;;;;;4956105;28;20411;-53
2022/09/04 06:55:26;;;;;;;15.32;6.05;;;18.30;99.90;;;;;;4955618;29;20089;-56
2022/09/04 06:57:53;;;;;;;9.40;4.93;;;18.40;99.90;;;;;;4955642;28;20050;-57
2022/09/04 07:00:20;;;;;;;12.00;5.20;;;18.40;99.90;;;;;;4956074;29;20039;-54
2022/09/04 07:02:50;;;;;;;12.13;5.40;;;18.40;99.90;;;;;;4953728;28;20048;-55
2022/09/04 07:05:17;;;;;;;8.32;4.55;;;18.50;99.90;;;;;;4955222;29;20042;-55
2022/09/04 07:07:44;;;;;;;9.40;4.65;;;18.60;99.90;;;;;;4954525;28;20035;-55
2022/09/04 07:10:11;;;;;;;9.98;4.43;;;18.60;99.90;;;;;;4954470;29;20039;-56
2022/09/04 07:12:38;;;;;;;10.50;4.30;;;18.70;99.90;;;;;;4955051;28;20055;-55
2022/09/04 07:15:05;;;;;;;9.25;3.70;;;18.80;99.90;;;;;;4955290;29;20134;-54
2022/09/04 07:17:32;;;;;;;11.48;4.00;;;18.80;99.90;;;;;;4952350;28;20118;-57
2022/09/04 07:19:59;;;;;;;10.63;4.00;;;18.80;99.90;;;;;;4951239;29;20487;-54
2022/09/04 07:22:25;;;;;;;9.27;4.07;;;18.90;99.90;;;;;;4952922;28;20470;-57
2022/09/04 07:24:55;;;;;;;10.38;4.35;;;18.90;99.90;;;;;;4955604;28;20395;-56
2022/09/04 07:27:22;;;;;;;8.73;3.60;;;19.00;99.90;;;;;;4954612;28;20394;-56
2022/09/04 07:29:49;;;;;;;7.85;3.35;;;19.00;99.90;;;;;;4955643;28;20047;-57
2022/09/04 07:32:18;;;;;;;8.63;3.45;;;19.10;99.90;;;;;;4947643;28;20039;-55
2022/09/04 07:34:45;;;;;;;8.00;3.30;;;19.10;99.90;;;;;;4936911;29;20540;-56
2022/09/04 07:37:12;;;;;;;13.18;3.30;;;19.10;99.90;;;;;;4950534;28;20486;-55
2022/09/04 07:39:39;;;;;;;10.77;3.00;;;19.10;99.90;;;;;;4955558;28;20039;-56
2022/09/04 07:42:05;;;;;;;11.38;3.42;;;19.10;99.90;;;;;;4954114;29;20053;-56
2022/09/04 07:44:32;;;;;;;10.45;2.70;;;19.10;99.90;;;;;;4948560;28;20054;-57
2022/09/04 07:46:59;;;;;;;6.22;2.45;;;19.20;99.90;;;;;;4954739;28;20039;-57
2022/09/04 07:49:26;;;;;;;7.85;2.70;;;19.20;99.90;;;;;;4952564;28;20386;-55
2022/09/04 07:51:55;;;;;;;9.40;2.88;;;19.30;99.90;;;;;;4952710;28;20502;-57
2022/09/04 07:54:22;;;;;;;5.15;2.53;;;19.30;99.90;;;;;;4953331;28;21515;-56
2022/09/04 07:56:53;;;;;;;7.38;2.70;;;19.30;99.90;;;;;;4952639;28;20047;-57
2022/09/04 07:59:20;;;;;;;6.40;2.60;;;19.40;99.90;;;;;;4953784;28;20055;-55
2022/09/04 08:01:47;;;;;;;11.85;3.08;;;19.50;99.90;;;;;;4953595;28;20444;-57
2022/09/04 08:04:13;;;;;;;8.93;3.00;;;19.50;99.90;;;;;;4954061;28;20047;-57
2022/09/04 08:06:40;;;;;;;8.15;2.58;;;19.60;99.90;;;;;;4952843;29;20039;-56
2022/09/04 08:09:07;;;;;;;7.78;2.47;;;19.70;99.90;;;;;;4953548;29;20110;-57
2022/09/04 08:11:34;;;;;;;7.60;2.38;;;19.70;99.90;;;;;;4952753;28;20391;-58
2022/09/04 08:14:01;;;;;;;10.13;2.70;;;19.80;99.90;;;;;;4952303;29;20039;-57
2022/09/04 08:16:28;;;;;;;9.10;3.17;;;19.90;99.90;;;;;;4952774;28;20043;-56
2022/09/04 08:18:54;;;;;;;9.63;2.70;;;19.90;99.90;;;;;;4953474;28;20043;-56
2022/09/04 08:21:21;;;;;;;8.70;2.60;;;20.00;99.90;;;;;;4952419;28;20047;-55
2022/09/04 08:23:48;;;;;;;9.35;2.05;;;20.10;99.90;;;;;;4953200;28;20035;-57
2022/09/04 08:26:15;;;;;;;6.55;2.40;;;20.20;99.90;;;;;;4953255;28;20047;-57
2022/09/04 08:28:42;;;;;;;9.20;2.33;;;20.30;99.90;;;;;;4953269;29;20047;-56
2022/09/04 08:31:12;;;;;;;9.52;2.45;;;20.30;99.90;;;;;;4951399;28;20039;-57
2022/09/04 08:33:40;;;;;;;6.70;2.50;;;20.40;99.90;;;;;;4953969;28;20047;-59
2022/09/04 08:36:07;;;;;;;9.70;2.70;;;20.50;99.90;;;;;;4947834;29;20458;-57
2022/09/04 08:38:33;;;;;;;9.95;2.50;;;20.60;99.90;;;;;;4952880;28;20479;-56
2022/09/04 08:41:00;;;;;;;9.50;2.45;;;20.70;99.90;;;;;;4954986;28;20078;-58
2022/09/04 08:43:27;;;;;;;6.93;2.22;;;20.70;99.90;;;;;;4954056;28;20054;-54
2022/09/04 08:45:54;;;;;;;10.90;2.58;;;20.80;99.90;;;;;;4958838;28;20040;-58
2022/09/04 08:48:20;;;;;;;6.25;2.13;;;20.90;99.90;;;;;;4956955;28;20453;-57
2022/09/04 08:50:50;;;;;;;7.15;2.47;;;20.90;99.90;;;;;;4952497;29;20063;-55
2022/09/04 08:53:17;;;;;;;9.35;2.60;;;21.00;99.90;;;;;;4946437;29;20098;-56
2022/09/04 08:55:47;;;;;;;11.73;2.63;;;21.10;99.90;;;;;;4954291;28;20055;-57
2022/09/04 08:58:14;;;;;;;6.15;2.13;;;21.10;99.60;;;;;;4946480;28;20043;-57
2022/09/04 09:00:41;;;;;;;8.20;2.92;;;21.10;99.90;;;;;;4956862;28;20509;-56
2022/09/04 09:03:07;;;;;;;11.00;3.08;;;21.20;99.40;;;;;;4954468;28;20039;-56
2022/09/04 09:05:35;;;;;;;7.60;2.40;;;21.20;99.70;;;;;;4957955;29;20143;-56
2022/09/04 09:08:02;;;;;;;10.00;2.28;;;21.30;99.80;;;;;;4957424;29;20122;-57
2022/09/04 09:10:28;;;;;;;9.13;2.65;;;21.40;99.60;;;;;;4957323;28;20434;-57
2022/09/04 09:12:55;;;;;;;8.65;2.67;;;21.50;99.50;;;;;;4946018;28;20403;-55
2022/09/04 09:15:22;;;;;;;10.30;2.25;;;21.50;99.20;;;;;;4953579;29;20562;-54
2022/09/04 09:17:49;;;;;;;7.18;2.22;;;21.50;99.00;;;;;;4942591;29;20039;-56
2022/09/04 09:20:15;;;;;;;8.77;2.10;;;21.60;99.00;;;;;;4945603;29;20095;-56
2022/09/04 09:22:47;;;;;;;7.75;2.40;;;21.70;99.10;;;;;;4957385;28;20087;-54
2022/09/04 09:25:15;;;;;;;7.47;2.38;;;21.70;98.90;;;;;;4957015;28;20078;-54
2022/09/04 09:27:42;;;;;;;9.75;2.72;;;21.60;98.80;;;;;;4954159;29;20494;-56
2022/09/04 09:30:08;;;;;;;9.10;2.38;;;21.60;99.00;;;;;;4957970;28;20050;-56
2022/09/04 09:32:35;;;;;;;10.65;2.40;;;21.70;99.00;;;;;;4957698;28;20482;-55
2022/09/04 09:35:02;;;;;;;7.90;2.83;;;21.70;98.70;;;;;;4955642;28;20040;-55
2022/09/04 09:37:29;;;;;;;6.85;2.50;;;21.80;98.70;;;;;;4948301;28;20055;-57
2022/09/04 09:39:56;;;;;;;5.90;2.10;;;21.80;98.80;;;;;;4939012;29;20089;-58
2022/09/04 09:42:23;;;;;;;8.10;2.17;;;21.80;98.40;;;;;;4951674;29;20498;-57
2022/09/04 09:44:50;;;;;;;11.40;2.53;;;21.80;98.10;;;;;;4956922;28;20043;-56
2022/09/04 09:47:17;;;;;;;8.15;2.10;;;21.90;97.80;;;;;;4957445;28;20047;-57
2022/09/04 09:49:43;;;;;;;7.03;2.10;;;21.90;97.90;;;;;;4957549;28;20071;-55
2022/09/04 09:52:10;;;;;;;8.27;1.98;;;21.90;97.40;;;;;;4957544;28;20054;-57
2022/09/04 09:54:37;;;;;;;6.38;1.90;;;21.90;97.20;;;;;;4945395;28;20112;-58
2022/09/04 09:57:04;;;;;;;11.23;2.10;;;21.90;97.20;;;;;;4947578;29;20054;-58
2022/09/04 09:59:31;;;;;;;7.82;2.90;;;22.00;97.30;;;;;;4956247;28;20043;-59
2022/09/04 10:01:58;;;;;;;10.02;2.35;;;22.10;97.20;;;;;;4955349;28;20732;-57
2022/09/04 10:04:25;;;;;;;9.77;2.28;;;22.20;97.10;;;;;;4957520;28;20067;-57
2022/09/04 10:06:52;;;;;;;9.20;2.50;;;22.20;96.90;;;;;;4956294;28;20039;-57
2022/09/04 10:09:19;;;;;;;8.02;2.13;;;22.30;96.80;;;;;;4955713;28;20039;-58
2022/09/04 10:11:46;;;;;;;6.35;2.13;;;22.30;96.80;;;;;;4951907;28;20110;-57
2022/09/04 10:14:12;;;;;;;9.30;2.15;;;22.40;96.60;;;;;;4949609;29;20043;-58
2022/09/04 10:16:41;;;;;;;10.15;2.30;;;22.40;96.60;;;;;;4955027;28;20443;-55
2022/09/04 10:19:10;;;;;;;11.93;2.50;;;22.40;96.20;;;;;;4954349;28;20039;-58
2022/09/04 10:21:36;;;;;;;7.70;2.40;;;22.40;96.30;;;;;;4955946;29;20406;-57
2022/09/04 10:24:05;;;;;;;12.30;2.53;;;22.50;96.10;;;;;;4940947;29;20156;-56
2022/09/04 10:26:37;;;;;;;6.68;2.05;;;22.50;96.50;;;;;;4955980;28;20094;-57
2022/09/04 10:29:08;;;;;;;7.03;2.50;;;22.50;96.00;;;;;;4954767;28;20043;-57
2022/09/04 10:31:35;;;;;;;8.23;2.03;;;22.60;96.30;;;;;;4956852;29;20100;-58
2022/09/04 10:34:02;;;;;;;12.13;1.95;;;22.60;96.10;;;;;;4955729;28;20402;-57
2022/09/04 10:36:29;;;;;;;7.78;2.03;;;22.70;95.90;;;;;;4957126;29;20047;-56
2022/09/04 10:41:43;;;;;;;9.73;2.33;;;22.80;95.40;;;;;;4956881;28;20043;-57
2022/09/04 10:44:10;;;;;;;5.65;1.65;;;22.90;95.50;;;;;;4954423;28;20098;-58
2022/09/04 10:46:37;;;;;;;5.65;2.20;;;22.90;95.50;;;;;;4954602;28;20047;-58
2022/09/04 10:49:05;;;;;;;8.98;2.00;;;23.00;95.40;;;;;;4955062;29;20125;-57
2022/09/04 10:51:33;;;;;;;5.70;2.00;;;23.00;94.70;;;;;;4956256;28;20051;-55
2022/09/04 10:54:05;;;;;;;10.10;2.20;;;23.00;94.30;;;;;;4954949;28;20057;-58
2022/09/04 10:56:34;;;;;;;8.52;1.92;;;23.10;94.50;;;;;;4955225;29;20061;-57
2022/09/04 10:59:02;;;;;;;6.60;2.00;;;23.20;93.90;;;;;;4951338;28;20047;-56
2022/09/04 11:01:31;;;;;;;8.48;2.30;;;23.20;93.80;;;;;;4950988;28;20047;-55
2022/09/04 11:03:57;;;;;;;6.38;1.77;;;23.20;93.60;;;;;;4936457;29;20044;-56
2022/09/04 11:06:25;;;;;;;9.23;2.20;;;23.30;94.00;;;;;;4947031;28;20090;-56
2022/09/04 11:08:52;;;;;;;7.70;2.15;;;23.30;93.70;;;;;;4955997;28;20051;-57
2022/09/04 11:11:19;;;;;;;7.05;2.28;;;23.30;93.30;;;;;;4954577;28;20035;-58
2022/09/04 11:13:47;;;;;;;6.20;1.75;;;23.40;93.60;;;;;;4954240;28;20044;-58
2022/09/04 11:16:17;;;;;;;5.97;2.20;;;23.50;93.20;;;;;;4951172;29;20047;-57
2022/09/04 11:18:44;;;;;;;7.00;1.77;;;23.40;92.70;;;;;;4954942;29;20078;-57
2022/09/04 11:21:11;;;;;;;6.10;1.88;;;23.40;92.90;;;;;;4954895;28;20047;-56
2022/09/04 11:23:38;;;;;;;7.57;1.92;;;23.40;93.00;;;;;;4954551;28;20062;-56
2022/09/04 11:26:04;;;;;;;6.80;2.13;;;23.40;92.60;;;;;;4954806;28;20086;-57
2022/09/04 11:28:31;;;;;;;6.82;2.08;;;23.50;92.90;;;;;;4950892;29;20042;-57
2022/09/04 11:30:58;;;;;;;6.85;2.00;;;23.50;92.60;;;;;;4954528;28;20039;-57
2022/09/04 11:33:29;;;;;;;8.45;2.00;;;23.50;92.40;;;;;;4953792;28;20086;-57
2022/09/04 11:35:55;;;;;;;6.05;1.90;;;23.40;92.60;;;;;;4954161;29;20047;-56
2022/09/04 11:38:22;;;;;;;7.55;2.15;;;23.50;92.80;;;;;;4966854;28;20494;-58
2022/09/04 11:40:49;;;;;;;6.43;2.13;;;23.50;92.40;;;;;;4954585;28;20051;-55
2022/09/04 11:43:17;;;;;;;9.35;2.75;;;23.50;92.60;;;;;;4969250;28;20047;-57
2022/09/04 11:45:46;;;;;;;8.25;2.05;;;23.70;92.80;;;;;;4952305;28;20474;-56
2022/09/04 11:48:13;;;;;;;8.88;2.10;;;23.80;93.10;;;;;;4954691;29;20067;-56
2022/09/04 11:50:40;;;;;;;6.82;2.20;;;23.90;92.80;;;;;;4948760;29;20058;-58
2022/09/04 11:53:10;;;;;;;10.43;2.33;;;24.00;93.20;;;;;;4954681;28;20062;-58
2022/09/04 11:55:36;;;;;;;9.20;2.30;;;24.10;92.90;;;;;;4955085;28;20059;-57
2022/09/04 11:58:03;;;;;;;8.48;2.08;;;24.20;92.80;;;;;;4955091;28;20052;-57
2022/09/04 12:00:30;;;;;;;8.05;2.10;;;24.30;92.80;;;;;;4954539;28;20039;-57
2022/09/04 12:02:57;;;;;;;7.15;1.83;;;24.20;92.30;;;;;;4954765;28;20403;-58
2022/09/04 12:05:38;;;;;;;8.27;2.50;;;24.20;92.50;;;;;;4955024;28;20043;-56
2022/09/04 12:08:05;;;;;;;7.93;2.30;;;24.20;92.60;;;;;;4951973;28;20054;-56
2022/09/04 12:10:32;;;;;;;6.07;2.03;;;24.30;92.90;;;;;;4954004;29;20475;-57
2022/09/04 12:12:59;;;;;;;8.13;2.17;;;24.30;92.60;;;;;;4953698;28;20077;-58
2022/09/04 12:15:40;;;;;;;9.45;2.08;;;24.20;92.40;;;;;;4950972;29;20071;-57
2022/09/04 12:18:07;;;;;;;8.50;2.83;;;24.10;92.40;;;;;;4953972;28;20044;-56
2022/09/04 12:20:34;;;;;;;9.07;2.38;;;24.10;92.30;;;;;;4957700;29;20158;-54
2022/09/04 12:23:01;;;;;;;8.70;2.10;;;24.10;92.50;;;;;;4957415;28;20043;-55
2022/09/04 12:25:28;;;;;;;9.02;2.38;;;24.10;92.50;;;;;;4957936;28;20039;-57
2022/09/04 12:27:54;;;;;;;7.00;2.20;;;24.10;92.90;;;;;;4956868;28;20059;-57
2022/09/04 12:30:24;;;;;;;7.35;2.20;;;24.20;92.80;;;;;;4957850;28;20066;-58
2022/09/04 12:32:51;;;;;;;10.73;2.50;;;24.20;92.60;;;;;;4956989;28;20039;-58
2022/09/04 12:35:18;;;;;;;10.45;2.30;;;24.20;92.30;;;;;;4957607;28;20043;-57
2022/09/04 12:37:45;;;;;;;7.90;2.20;;;24.30;92.50;;;;;;4957594;28;20039;-57
2022/09/04 12:40:12;;;;;;;8.85;2.30;;;24.40;92.20;;;;;;4956597;28;20058;-57